sensor_id;sensor_type;location;lat;lon;timestamp;P1;durP1;ratioP1;P2;durP2;ratioP2
27071;SDS011;14613;46.308;25.288;2022-07-18T00:00:46;2.57;;;1.30;;
27071;SDS011;14613;46.308;25.288;2022-07-18T00:03:12;2.40;;;1.33;;
27071;SDS011;14613;46.308;25.288;2022-07-18T00:05:37;12.20;;;1.43;;
27071;SDS011;14613;46.308;25.288;2022-07-18T00:08:03;2.27;;;1.20;;
27071;SDS011;14613;46.308;25.288;2022-07-18T00:10:29;1.40;;;1.17;;
27071;SDS011;14613;46.308;25.288;2022-07-18T00:12:55;3.37;;;1.43;;
27071;SDS011;14613;46.308;25.288;2022-07-18T00:15:21;7.63;;;3.00;;
27071;SDS011;14613;46.308;25.288;2022-07-18T00:17:46;3.30;;;1.70;;
27071;SDS011;14613;46.308;25.288;2022-07-18T00:20:12;3.33;;;1.37;;
27071;SDS011;14613;46.308;25.288;2022-07-18T00:22:38;2.53;;;1.17;;
27071;SDS011;14613;46.308;25.288;2022-07-18T00:25:07;12.87;;;1.33;;
27071;SDS011;14613;46.308;25.288;2022-07-18T00:27:36;5.20;;;1.50;;
27071;SDS011;14613;46.308;25.288;2022-07-18T00:30:05;5.20;;;1.43;;
27071;SDS011;14613;46.308;25.288;2022-07-18T00:32:31;4.50;;;1.20;;
27071;SDS011;14613;46.308;25.288;2022-07-18T00:34:57;13.20;;;1.67;;
27071;SDS011;14613;46.308;25.288;2022-07-18T00:37:23;4.50;;;1.27;;
27071;SDS011;14613;46.308;25.288;2022-07-18T00:39:48;3.30;;;1.40;;
27071;SDS011;14613;46.308;25.288;2022-07-18T00:42:23;3.07;;;1.03;;
27071;SDS011;14613;46.308;25.288;2022-07-18T00:44:53;2.77;;;1.13;;
27071;SDS011;14613;46.308;25.288;2022-07-18T00:47:20;1.30;;;1.17;;
27071;SDS011;14613;46.308;25.288;2022-07-18T00:49:46;1.80;;;1.33;;
27071;SDS011;14613;46.308;25.288;2022-07-18T00:52:17;2.17;;;1.23;;
27071;SDS011;14613;46.308;25.288;2022-07-18T00:54:43;3.10;;;1.30;;
27071;SDS011;14613;46.308;25.288;2022-07-18T00:57:09;5.23;;;1.10;;
27071;SDS011;14613;46.308;25.288;2022-07-18T00:59:37;3.03;;;1.10;;
27071;SDS011;14613;46.308;25.288;2022-07-18T01:02:22;2.03;;;1.43;;
27071;SDS011;14613;46.308;25.288;2022-07-18T01:04:47;5.00;;;1.40;;
27071;SDS011;14613;46.308;25.288;2022-07-18T01:07:13;6.20;;;1.30;;
27071;SDS011;14613;46.308;25.288;2022-07-18T01:09:39;1.90;;;1.33;;
27071;SDS011;14613;46.308;25.288;2022-07-18T01:12:05;3.50;;;1.30;;
27071;SDS011;14613;46.308;25.288;2022-07-18T01:14:32;1.23;;;1.13;;
27071;SDS011;14613;46.308;25.288;2022-07-18T01:16:58;2.90;;;0.90;;
27071;SDS011;14613;46.308;25.288;2022-07-18T01:19:24;1.37;;;0.93;;
27071;SDS011;14613;46.308;25.288;2022-07-18T01:21:49;4.63;;;1.37;;
27071;SDS011;14613;46.308;25.288;2022-07-18T01:24:15;2.47;;;1.37;;
27071;SDS011;14613;46.308;25.288;2022-07-18T01:27:23;1.87;;;1.27;;
27071;SDS011;14613;46.308;25.288;2022-07-18T01:29:52;6.23;;;1.70;;
27071;SDS011;14613;46.308;25.288;2022-07-18T01:32:18;1.73;;;1.33;;
27071;SDS011;14613;46.308;25.288;2022-07-18T01:34:48;1.10;;;1.00;;
27071;SDS011;14613;46.308;25.288;2022-07-18T01:37:15;1.27;;;1.20;;
27071;SDS011;14613;46.308;25.288;2022-07-18T01:39:41;1.40;;;1.30;;
27071;SDS011;14613;46.308;25.288;2022-07-18T01:42:09;4.30;;;0.97;;
27071;SDS011;14613;46.308;25.288;2022-07-18T01:44:35;2.33;;;1.23;;
27071;SDS011;14613;46.308;25.288;2022-07-18T01:47:03;3.47;;;1.37;;
27071;SDS011;14613;46.308;25.288;2022-07-18T01:49:31;1.07;;;0.87;;
27071;SDS011;14613;46.308;25.288;2022-07-18T01:51:57;2.30;;;1.50;;
27071;SDS011;14613;46.308;25.288;2022-07-18T01:54:24;3.30;;;1.60;;
27071;SDS011;14613;46.308;25.288;2022-07-18T01:56:56;1.77;;;1.57;;
27071;SDS011;14613;46.308;25.288;2022-07-18T01:59:22;3.17;;;1.13;;
27071;SDS011;14613;46.308;25.288;2022-07-18T02:01:49;2.97;;;1.57;;
27071;SDS011;14613;46.308;25.288;2022-07-18T02:04:15;6.80;;;2.47;;
27071;SDS011;14613;46.308;25.288;2022-07-18T02:06:41;1.63;;;1.53;;
27071;SDS011;14613;46.308;25.288;2022-07-18T02:09:07;3.27;;;1.60;;
27071;SDS011;14613;46.308;25.288;2022-07-18T02:11:34;3.87;;;1.80;;
27071;SDS011;14613;46.308;25.288;2022-07-18T02:14:00;1.63;;;1.23;;
27071;SDS011;14613;46.308;25.288;2022-07-18T02:16:27;2.03;;;1.50;;
27071;SDS011;14613;46.308;25.288;2022-07-18T02:18:54;2.40;;;1.33;;
27071;SDS011;14613;46.308;25.288;2022-07-18T02:21:20;4.10;;;1.53;;
27071;SDS011;14613;46.308;25.288;2022-07-18T02:23:46;4.53;;;1.80;;
27071;SDS011;14613;46.308;25.288;2022-07-18T02:26:12;1.83;;;1.47;;
27071;SDS011;14613;46.308;25.288;2022-07-18T02:28:37;2.10;;;1.30;;
27071;SDS011;14613;46.308;25.288;2022-07-18T02:31:03;2.43;;;1.30;;
27071;SDS011;14613;46.308;25.288;2022-07-18T02:33:30;4.07;;;1.30;;
27071;SDS011;14613;46.308;25.288;2022-07-18T02:35:56;1.93;;;1.20;;
27071;SDS011;14613;46.308;25.288;2022-07-18T02:38:22;2.10;;;1.60;;
27071;SDS011;14613;46.308;25.288;2022-07-18T02:40:47;1.53;;;1.43;;
27071;SDS011;14613;46.308;25.288;2022-07-18T02:43:14;1.30;;;1.20;;
27071;SDS011;14613;46.308;25.288;2022-07-18T02:45:39;1.93;;;1.40;;
27071;SDS011;14613;46.308;25.288;2022-07-18T02:48:05;4.43;;;1.50;;
27071;SDS011;14613;46.308;25.288;2022-07-18T02:50:31;2.70;;;1.40;;
27071;SDS011;14613;46.308;25.288;2022-07-18T02:52:57;3.27;;;1.50;;
27071;SDS011;14613;46.308;25.288;2022-07-18T02:55:22;6.00;;;1.77;;
27071;SDS011;14613;46.308;25.288;2022-07-18T02:57:49;2.33;;;1.60;;
27071;SDS011;14613;46.308;25.288;2022-07-18T03:00:16;5.53;;;3.00;;
27071;SDS011;14613;46.308;25.288;2022-07-18T03:02:42;1.70;;;1.60;;
27071;SDS011;14613;46.308;25.288;2022-07-18T03:05:09;3.50;;;1.90;;
27071;SDS011;14613;46.308;25.288;2022-07-18T03:07:36;4.03;;;1.90;;
27071;SDS011;14613;46.308;25.288;2022-07-18T03:10:02;1.30;;;1.20;;
27071;SDS011;14613;46.308;25.288;2022-07-18T03:12:29;2.13;;;1.30;;
27071;SDS011;14613;46.308;25.288;2022-07-18T03:14:55;3.03;;;1.13;;
27071;SDS011;14613;46.308;25.288;2022-07-18T03:17:20;3.93;;;1.60;;
27071;SDS011;14613;46.308;25.288;2022-07-18T03:19:46;3.33;;;1.83;;
27071;SDS011;14613;46.308;25.288;2022-07-18T03:22:12;8.53;;;1.70;;
27071;SDS011;14613;46.308;25.288;2022-07-18T03:24:38;3.80;;;2.00;;
27071;SDS011;14613;46.308;25.288;2022-07-18T03:27:04;3.73;;;1.97;;
27071;SDS011;14613;46.308;25.288;2022-07-18T03:29:30;2.63;;;2.43;;
27071;SDS011;14613;46.308;25.288;2022-07-18T03:31:55;5.70;;;2.67;;
27071;SDS011;14613;46.308;25.288;2022-07-18T03:34:21;2.17;;;1.70;;
27071;SDS011;14613;46.308;25.288;2022-07-18T03:36:47;1.97;;;1.43;;
27071;SDS011;14613;46.308;25.288;2022-07-18T03:39:13;2.63;;;1.40;;
27071;SDS011;14613;46.308;25.288;2022-07-18T03:41:38;1.57;;;1.30;;
27071;SDS011;14613;46.308;25.288;2022-07-18T03:44:05;3.03;;;1.43;;
27071;SDS011;14613;46.308;25.288;2022-07-18T03:46:31;9.60;;;1.40;;
27071;SDS011;14613;46.308;25.288;2022-07-18T03:48:57;6.17;;;1.37;;
27071;SDS011;14613;46.308;25.288;2022-07-18T03:51:23;0.90;;;0.90;;
27071;SDS011;14613;46.308;25.288;2022-07-18T03:53:49;6.53;;;1.67;;
27071;SDS011;14613;46.308;25.288;2022-07-18T03:56:15;6.47;;;1.63;;
27071;SDS011;14613;46.308;25.288;2022-07-18T03:58:41;3.03;;;1.02;;
27071;SDS011;14613;46.308;25.288;2022-07-18T04:01:07;6.22;;;1.45;;
27071;SDS011;14613;46.308;25.288;2022-07-18T04:03:33;9.40;;;1.38;;
27071;SDS011;14613;46.308;25.288;2022-07-18T04:05:59;21.30;;;2.08;;
27071;SDS011;14613;46.308;25.288;2022-07-18T04:08:25;2.53;;;1.38;;
27071;SDS011;14613;46.308;25.288;2022-07-18T04:10:51;1.67;;;1.50;;
27071;SDS011;14613;46.308;25.288;2022-07-18T04:13:17;4.88;;;1.83;;
27071;SDS011;14613;46.308;25.288;2022-07-18T04:15:42;2.80;;;1.77;;
27071;SDS011;14613;46.308;25.288;2022-07-18T04:18:08;4.05;;;1.75;;
27071;SDS011;14613;46.308;25.288;2022-07-18T04:20:35;5.97;;;1.52;;
27071;SDS011;14613;46.308;25.288;2022-07-18T04:23:02;3.15;;;1.77;;
27071;SDS011;14613;46.308;25.288;2022-07-18T04:25:33;4.65;;;1.60;;
27071;SDS011;14613;46.308;25.288;2022-07-18T04:28:00;7.45;;;2.08;;
27071;SDS011;14613;46.308;25.288;2022-07-18T04:30:27;3.08;;;1.83;;
27071;SDS011;14613;46.308;25.288;2022-07-18T04:32:54;4.53;;;1.95;;
27071;SDS011;14613;46.308;25.288;2022-07-18T04:35:20;4.60;;;1.88;;
27071;SDS011;14613;46.308;25.288;2022-07-18T04:37:47;7.70;;;1.67;;
27071;SDS011;14613;46.308;25.288;2022-07-18T04:40:14;9.60;;;1.88;;
27071;SDS011;14613;46.308;25.288;2022-07-18T04:42:40;3.45;;;2.03;;
27071;SDS011;14613;46.308;25.288;2022-07-18T04:45:07;11.48;;;2.08;;
27071;SDS011;14613;46.308;25.288;2022-07-18T04:47:34;7.97;;;2.08;;
27071;SDS011;14613;46.308;25.288;2022-07-18T04:50:00;6.72;;;2.78;;
27071;SDS011;14613;46.308;25.288;2022-07-18T04:52:26;8.95;;;2.80;;
27071;SDS011;14613;46.308;25.288;2022-07-18T04:54:52;15.85;;;2.30;;
27071;SDS011;14613;46.308;25.288;2022-07-18T04:57:18;7.72;;;2.70;;
27071;SDS011;14613;46.308;25.288;2022-07-18T04:59:44;6.43;;;2.00;;
27071;SDS011;14613;46.308;25.288;2022-07-18T05:02:11;10.55;;;2.05;;
27071;SDS011;14613;46.308;25.288;2022-07-18T05:04:37;8.00;;;2.45;;
27071;SDS011;14613;46.308;25.288;2022-07-18T05:07:04;3.33;;;2.00;;
27071;SDS011;14613;46.308;25.288;2022-07-18T05:09:31;14.27;;;2.90;;
27071;SDS011;14613;46.308;25.288;2022-07-18T05:11:58;9.75;;;2.50;;
27071;SDS011;14613;46.308;25.288;2022-07-18T05:14:24;10.18;;;2.22;;
27071;SDS011;14613;46.308;25.288;2022-07-18T05:16:49;10.93;;;2.63;;
27071;SDS011;14613;46.308;25.288;2022-07-18T05:19:15;10.15;;;2.50;;
27071;SDS011;14613;46.308;25.288;2022-07-18T05:21:42;7.28;;;2.05;;
27071;SDS011;14613;46.308;25.288;2022-07-18T05:24:08;10.82;;;3.00;;
27071;SDS011;14613;46.308;25.288;2022-07-18T05:26:34;4.13;;;2.22;;
27071;SDS011;14613;46.308;25.288;2022-07-18T05:29:00;11.70;;;2.33;;
27071;SDS011;14613;46.308;25.288;2022-07-18T05:31:25;11.30;;;2.80;;
27071;SDS011;14613;46.308;25.288;2022-07-18T05:33:51;13.88;;;3.20;;
27071;SDS011;14613;46.308;25.288;2022-07-18T05:36:17;15.30;;;3.30;;
27071;SDS011;14613;46.308;25.288;2022-07-18T05:38:43;5.07;;;1.80;;
27071;SDS011;14613;46.308;25.288;2022-07-18T05:41:09;9.40;;;2.08;;
27071;SDS011;14613;46.308;25.288;2022-07-18T05:43:34;6.40;;;2.38;;
27071;SDS011;14613;46.308;25.288;2022-07-18T05:46:00;5.57;;;2.08;;
27071;SDS011;14613;46.308;25.288;2022-07-18T05:48:26;17.92;;;2.38;;
27071;SDS011;14613;46.308;25.288;2022-07-18T05:50:52;16.35;;;2.55;;
27071;SDS011;14613;46.308;25.288;2022-07-18T05:53:18;7.82;;;2.65;;
27071;SDS011;14613;46.308;25.288;2022-07-18T05:55:43;9.15;;;2.53;;
27071;SDS011;14613;46.308;25.288;2022-07-18T05:58:09;12.68;;;1.98;;
27071;SDS011;14613;46.308;25.288;2022-07-18T06:00:35;4.75;;;1.42;;
27071;SDS011;14613;46.308;25.288;2022-07-18T06:03:01;10.75;;;1.67;;
27071;SDS011;14613;46.308;25.288;2022-07-18T06:05:27;3.97;;;1.10;;
27071;SDS011;14613;46.308;25.288;2022-07-18T06:07:53;7.65;;;1.65;;
27071;SDS011;14613;46.308;25.288;2022-07-18T06:10:20;7.28;;;1.55;;
27071;SDS011;14613;46.308;25.288;2022-07-18T06:12:47;3.60;;;1.88;;
27071;SDS011;14613;46.308;25.288;2022-07-18T06:15:13;6.38;;;3.15;;
27071;SDS011;14613;46.308;25.288;2022-07-18T06:17:39;6.68;;;1.55;;
27071;SDS011;14613;46.308;25.288;2022-07-18T06:20:05;8.70;;;2.13;;
27071;SDS011;14613;46.308;25.288;2022-07-18T06:22:34;3.25;;;1.10;;
27071;SDS011;14613;46.308;25.288;2022-07-18T06:25:01;3.53;;;1.35;;
27071;SDS011;14613;46.308;25.288;2022-07-18T06:27:28;2.95;;;1.00;;
27071;SDS011;14613;46.308;25.288;2022-07-18T06:29:54;5.63;;;1.25;;
27071;SDS011;14613;46.308;25.288;2022-07-18T06:32:20;4.03;;;1.33;;
27071;SDS011;14613;46.308;25.288;2022-07-18T06:34:45;0.95;;;0.95;;
27071;SDS011;14613;46.308;25.288;2022-07-18T06:37:11;2.38;;;1.08;;
27071;SDS011;14613;46.308;25.288;2022-07-18T06:39:37;7.43;;;1.08;;
27071;SDS011;14613;46.308;25.288;2022-07-18T06:42:03;4.32;;;1.55;;
27071;SDS011;14613;46.308;25.288;2022-07-18T06:44:29;2.58;;;1.10;;
27071;SDS011;14613;46.308;25.288;2022-07-18T06:46:55;2.33;;;1.20;;
27071;SDS011;14613;46.308;25.288;2022-07-18T06:49:22;2.15;;;1.27;;
27071;SDS011;14613;46.308;25.288;2022-07-18T06:51:50;5.28;;;1.52;;
27071;SDS011;14613;46.308;25.288;2022-07-18T06:54:16;2.28;;;1.10;;
27071;SDS011;14613;46.308;25.288;2022-07-18T06:56:42;1.65;;;1.30;;
27071;SDS011;14613;46.308;25.288;2022-07-18T06:59:08;6.70;;;1.20;;
27071;SDS011;14613;46.308;25.288;2022-07-18T07:01:34;7.18;;;1.20;;
27071;SDS011;14613;46.308;25.288;2022-07-18T07:04:00;2.58;;;1.25;;
27071;SDS011;14613;46.308;25.288;2022-07-18T07:06:25;2.03;;;0.98;;
27071;SDS011;14613;46.308;25.288;2022-07-18T07:08:51;5.55;;;1.20;;
27071;SDS011;14613;46.308;25.288;2022-07-18T07:11:17;3.55;;;0.95;;
27071;SDS011;14613;46.308;25.288;2022-07-18T07:13:43;7.22;;;1.95;;
27071;SDS011;14613;46.308;25.288;2022-07-18T07:16:08;5.68;;;1.23;;
27071;SDS011;14613;46.308;25.288;2022-07-18T07:18:34;4.82;;;1.50;;
27071;SDS011;14613;46.308;25.288;2022-07-18T07:21:00;3.30;;;1.13;;
27071;SDS011;14613;46.308;25.288;2022-07-18T07:23:27;2.65;;;1.63;;
27071;SDS011;14613;46.308;25.288;2022-07-18T07:25:53;2.28;;;0.98;;
27071;SDS011;14613;46.308;25.288;2022-07-18T07:28:19;2.55;;;1.17;;
27071;SDS011;14613;46.308;25.288;2022-07-18T07:30:45;3.92;;;1.27;;
27071;SDS011;14613;46.308;25.288;2022-07-18T07:33:11;5.35;;;0.60;;
27071;SDS011;14613;46.308;25.288;2022-07-18T07:35:37;1.40;;;1.00;;
27071;SDS011;14613;46.308;25.288;2022-07-18T07:38:02;2.85;;;1.08;;
27071;SDS011;14613;46.308;25.288;2022-07-18T07:40:28;3.15;;;1.08;;
27071;SDS011;14613;46.308;25.288;2022-07-18T07:43:04;0.88;;;0.70;;
27071;SDS011;14613;46.308;25.288;2022-07-18T07:45:31;1.50;;;0.80;;
27071;SDS011;14613;46.308;25.288;2022-07-18T07:47:57;4.97;;;1.02;;
27071;SDS011;14613;46.308;25.288;2022-07-18T07:50:23;2.13;;;1.08;;
27071;SDS011;14613;46.308;25.288;2022-07-18T07:52:49;7.03;;;1.05;;
27071;SDS011;14613;46.308;25.288;2022-07-18T07:55:14;1.15;;;1.02;;
27071;SDS011;14613;46.308;25.288;2022-07-18T07:57:40;6.40;;;1.73;;
27071;SDS011;14613;46.308;25.288;2022-07-18T08:00:07;2.55;;;1.75;;
27071;SDS011;14613;46.308;25.288;2022-07-18T08:02:34;1.02;;;0.60;;
27071;SDS011;14613;46.308;25.288;2022-07-18T08:05:00;1.85;;;0.80;;
27071;SDS011;14613;46.308;25.288;2022-07-18T08:07:27;1.33;;;0.85;;
27071;SDS011;14613;46.308;25.288;2022-07-18T08:09:52;0.90;;;0.77;;
27071;SDS011;14613;46.308;25.288;2022-07-18T08:12:18;1.65;;;0.80;;
27071;SDS011;14613;46.308;25.288;2022-07-18T08:14:44;1.15;;;1.00;;
27071;SDS011;14613;46.308;25.288;2022-07-18T08:17:10;3.45;;;0.93;;
27071;SDS011;14613;46.308;25.288;2022-07-18T08:19:35;3.30;;;0.80;;
27071;SDS011;14613;46.308;25.288;2022-07-18T08:22:01;7.68;;;0.70;;
27071;SDS011;14613;46.308;25.288;2022-07-18T08:24:27;1.27;;;0.65;;
27071;SDS011;14613;46.308;25.288;2022-07-18T08:26:53;1.52;;;0.50;;
27071;SDS011;14613;46.308;25.288;2022-07-18T08:29:18;3.05;;;0.75;;
27071;SDS011;14613;46.308;25.288;2022-07-18T08:31:44;1.38;;;0.60;;
27071;SDS011;14613;46.308;25.288;2022-07-18T08:34:10;6.50;;;1.20;;
27071;SDS011;14613;46.308;25.288;2022-07-18T08:36:36;2.67;;;1.05;;
27071;SDS011;14613;46.308;25.288;2022-07-18T08:39:01;2.25;;;0.90;;
27071;SDS011;14613;46.308;25.288;2022-07-18T08:41:27;1.90;;;1.05;;
27071;SDS011;14613;46.308;25.288;2022-07-18T08:43:53;6.60;;;1.40;;
27071;SDS011;14613;46.308;25.288;2022-07-18T08:46:21;1.65;;;0.77;;
27071;SDS011;14613;46.308;25.288;2022-07-18T08:48:47;0.82;;;0.82;;
27071;SDS011;14613;46.308;25.288;2022-07-18T08:51:14;1.95;;;0.80;;
27071;SDS011;14613;46.308;25.288;2022-07-18T08:53:40;7.45;;;0.77;;
27071;SDS011;14613;46.308;25.288;2022-07-18T08:56:06;1.20;;;0.80;;
27071;SDS011;14613;46.308;25.288;2022-07-18T08:58:32;3.60;;;0.65;;
27071;SDS011;14613;46.308;25.288;2022-07-18T09:00:58;1.23;;;0.70;;
27071;SDS011;14613;46.308;25.288;2022-07-18T09:03:24;1.50;;;1.05;;
27071;SDS011;14613;46.308;25.288;2022-07-18T09:08:36;1.75;;;0.80;;
27071;SDS011;14613;46.308;25.288;2022-07-18T09:11:04;2.97;;;0.80;;
27071;SDS011;14613;46.308;25.288;2022-07-18T09:13:36;3.17;;;1.10;;
27071;SDS011;14613;46.308;25.288;2022-07-18T09:16:08;3.75;;;1.10;;
27071;SDS011;14613;46.308;25.288;2022-07-18T09:18:36;1.15;;;0.80;;
27071;SDS011;14613;46.308;25.288;2022-07-18T09:21:04;2.72;;;1.05;;
27071;SDS011;14613;46.308;25.288;2022-07-18T09:23:33;1.10;;;0.90;;
27071;SDS011;14613;46.308;25.288;2022-07-18T09:26:01;6.60;;;0.93;;
27071;SDS011;14613;46.308;25.288;2022-07-18T09:28:28;4.13;;;0.80;;
27071;SDS011;14613;46.308;25.288;2022-07-18T09:31:19;1.95;;;0.60;;
27071;SDS011;14613;46.308;25.288;2022-07-18T09:34:00;0.95;;;0.80;;
27071;SDS011;14613;46.308;25.288;2022-07-18T09:36:27;0.98;;;0.80;;
27071;SDS011;14613;46.308;25.288;2022-07-18T09:38:54;1.08;;;0.80;;
27071;SDS011;14613;46.308;25.288;2022-07-18T09:41:27;1.60;;;0.90;;
27071;SDS011;14613;46.308;25.288;2022-07-18T09:43:57;2.80;;;1.38;;
27071;SDS011;14613;46.308;25.288;2022-07-18T09:46:23;8.43;;;2.28;;
27071;SDS011;14613;46.308;25.288;2022-07-18T09:49:07;3.63;;;1.08;;
27071;SDS011;14613;46.308;25.288;2022-07-18T09:51:34;0.73;;;0.73;;
27071;SDS011;14613;46.308;25.288;2022-07-18T09:53:59;2.35;;;1.23;;
27071;SDS011;14613;46.308;25.288;2022-07-18T09:56:27;2.67;;;1.00;;
27071;SDS011;14613;46.308;25.288;2022-07-18T09:58:58;4.00;;;1.10;;
27071;SDS011;14613;46.308;25.288;2022-07-18T10:01:24;3.58;;;0.98;;
27071;SDS011;14613;46.308;25.288;2022-07-18T10:03:50;3.28;;;0.95;;
27071;SDS011;14613;46.308;25.288;2022-07-18T10:06:17;3.58;;;0.90;;
27071;SDS011;14613;46.308;25.288;2022-07-18T10:08:43;2.70;;;0.77;;
27071;SDS011;14613;46.308;25.288;2022-07-18T10:11:09;3.30;;;0.70;;
27071;SDS011;14613;46.308;25.288;2022-07-18T10:13:36;2.53;;;0.95;;
27071;SDS011;14613;46.308;25.288;2022-07-18T10:16:03;2.10;;;1.17;;
27071;SDS011;14613;46.308;25.288;2022-07-18T10:18:31;1.05;;;0.73;;
27071;SDS011;14613;46.308;25.288;2022-07-18T10:21:13;2.65;;;0.90;;
27071;SDS011;14613;46.308;25.288;2022-07-18T10:23:44;1.05;;;0.73;;
27071;SDS011;14613;46.308;25.288;2022-07-18T10:26:18;3.60;;;0.77;;
27071;SDS011;14613;46.308;25.288;2022-07-18T10:33:49;1.05;;;0.75;;
27071;SDS011;14613;46.308;25.288;2022-07-18T10:36:16;0.85;;;0.85;;
27071;SDS011;14613;46.308;25.288;2022-07-18T10:41:31;2.95;;;0.88;;
27071;SDS011;14613;46.308;25.288;2022-07-18T10:43:57;3.83;;;0.95;;
27071;SDS011;14613;46.308;25.288;2022-07-18T10:46:23;3.55;;;0.75;;
27071;SDS011;14613;46.308;25.288;2022-07-18T10:51:15;3.33;;;1.23;;
27071;SDS011;14613;46.308;25.288;2022-07-18T10:58:54;1.38;;;0.80;;
27071;SDS011;14613;46.308;25.288;2022-07-18T11:01:21;0.77;;;0.77;;
27071;SDS011;14613;46.308;25.288;2022-07-18T11:03:49;5.57;;;0.75;;
27071;SDS011;14613;46.308;25.288;2022-07-18T11:06:15;1.00;;;0.98;;
27071;SDS011;14613;46.308;25.288;2022-07-18T11:08:41;0.70;;;0.70;;
27071;SDS011;14613;46.308;25.288;2022-07-18T11:11:08;7.60;;;1.05;;
27071;SDS011;14613;46.308;25.288;2022-07-18T11:13:40;4.72;;;0.95;;
27071;SDS011;14613;46.308;25.288;2022-07-18T11:21:19;0.95;;;0.70;;
27071;SDS011;14613;46.308;25.288;2022-07-18T11:23:49;7.30;;;3.67;;
27071;SDS011;14613;46.308;25.288;2022-07-18T11:26:24;1.33;;;1.08;;
27071;SDS011;14613;46.308;25.288;2022-07-18T11:28:57;1.55;;;0.98;;
27071;SDS011;14613;46.308;25.288;2022-07-18T11:31:24;0.77;;;0.77;;
27071;SDS011;14613;46.308;25.288;2022-07-18T11:33:51;2.28;;;1.10;;
27071;SDS011;14613;46.308;25.288;2022-07-18T11:36:18;3.42;;;0.70;;
27071;SDS011;14613;46.308;25.288;2022-07-18T11:38:49;0.95;;;0.82;;
27071;SDS011;14613;46.308;25.288;2022-07-18T11:41:17;7.05;;;1.05;;
27071;SDS011;14613;46.308;25.288;2022-07-18T11:43:44;0.70;;;0.65;;
27071;SDS011;14613;46.308;25.288;2022-07-18T11:46:13;0.70;;;0.70;;
27071;SDS011;14613;46.308;25.288;2022-07-18T11:48:40;3.72;;;1.00;;
27071;SDS011;14613;46.308;25.288;2022-07-18T11:51:08;0.60;;;0.60;;
27071;SDS011;14613;46.308;25.288;2022-07-18T11:53:44;4.15;;;0.80;;
27071;SDS011;14613;46.308;25.288;2022-07-18T11:56:11;0.90;;;0.82;;
27071;SDS011;14613;46.308;25.288;2022-07-18T11:58:39;0.50;;;0.50;;
27071;SDS011;14613;46.308;25.288;2022-07-18T12:01:06;4.28;;;0.90;;
27071;SDS011;14613;46.308;25.288;2022-07-18T12:03:36;0.88;;;0.85;;
27071;SDS011;14613;46.308;25.288;2022-07-18T12:06:15;1.25;;;0.85;;
27071;SDS011;14613;46.308;25.288;2022-07-18T12:08:48;2.50;;;0.80;;
27071;SDS011;14613;46.308;25.288;2022-07-18T12:11:31;1.25;;;0.90;;
27071;SDS011;14613;46.308;25.288;2022-07-18T12:14:00;3.20;;;1.23;;
27071;SDS011;14613;46.308;25.288;2022-07-18T12:16:43;3.28;;;0.80;;
27071;SDS011;14613;46.308;25.288;2022-07-18T12:22:15;4.22;;;1.25;;
27071;SDS011;14613;46.308;25.288;2022-07-18T12:24:54;1.67;;;0.80;;
27071;SDS011;14613;46.308;25.288;2022-07-18T12:27:26;1.45;;;0.73;;
27071;SDS011;14613;46.308;25.288;2022-07-18T12:35:17;1.48;;;0.90;;
27071;SDS011;14613;46.308;25.288;2022-07-18T12:43:32;1.02;;;0.82;;
27071;SDS011;14613;46.308;25.288;2022-07-18T12:46:02;2.95;;;0.90;;
27071;SDS011;14613;46.308;25.288;2022-07-18T12:48:29;2.05;;;1.15;;
27071;SDS011;14613;46.308;25.288;2022-07-18T12:51:00;2.13;;;0.88;;
27071;SDS011;14613;46.308;25.288;2022-07-18T12:53:27;0.82;;;0.60;;
27071;SDS011;14613;46.308;25.288;2022-07-18T12:55:54;1.15;;;0.73;;
27071;SDS011;14613;46.308;25.288;2022-07-18T12:58:20;1.63;;;0.70;;
27071;SDS011;14613;46.308;25.288;2022-07-18T13:00:46;8.73;;;1.13;;
27071;SDS011;14613;46.308;25.288;2022-07-18T13:03:13;2.28;;;1.00;;
27071;SDS011;14613;46.308;25.288;2022-07-18T13:05:39;1.75;;;0.93;;
27071;SDS011;14613;46.308;25.288;2022-07-18T13:08:05;1.58;;;0.98;;
27071;SDS011;14613;46.308;25.288;2022-07-18T13:10:33;1.65;;;0.85;;
27071;SDS011;14613;46.308;25.288;2022-07-18T13:13:02;2.45;;;1.00;;
27071;SDS011;14613;46.308;25.288;2022-07-18T13:15:29;0.55;;;0.55;;
27071;SDS011;14613;46.308;25.288;2022-07-18T13:17:55;3.42;;;0.90;;
27071;SDS011;14613;46.308;25.288;2022-07-18T13:20:21;1.33;;;0.90;;
27071;SDS011;14613;46.308;25.288;2022-07-18T13:22:47;4.47;;;1.00;;
27071;SDS011;14613;46.308;25.288;2022-07-18T13:25:13;1.23;;;1.10;;
27071;SDS011;14613;46.308;25.288;2022-07-18T13:27:39;1.13;;;0.73;;
27071;SDS011;14613;46.308;25.288;2022-07-18T13:30:05;0.70;;;0.70;;
27071;SDS011;14613;46.308;25.288;2022-07-18T13:32:33;1.13;;;0.80;;
27071;SDS011;14613;46.308;25.288;2022-07-18T13:34:59;1.42;;;0.98;;
27071;SDS011;14613;46.308;25.288;2022-07-18T13:37:25;3.38;;;1.00;;
27071;SDS011;14613;46.308;25.288;2022-07-18T13:39:51;1.38;;;0.90;;
27071;SDS011;14613;46.308;25.288;2022-07-18T13:42:17;3.10;;;0.70;;
27071;SDS011;14613;46.308;25.288;2022-07-18T13:44:44;0.93;;;0.85;;
27071;SDS011;14613;46.308;25.288;2022-07-18T13:47:10;3.35;;;0.80;;
27071;SDS011;14613;46.308;25.288;2022-07-18T13:49:37;1.75;;;0.77;;
27071;SDS011;14613;46.308;25.288;2022-07-18T13:52:03;2.90;;;0.82;;
27071;SDS011;14613;46.308;25.288;2022-07-18T13:54:29;2.92;;;0.85;;
27071;SDS011;14613;46.308;25.288;2022-07-18T13:56:55;0.93;;;0.82;;
27071;SDS011;14613;46.308;25.288;2022-07-18T13:59:21;3.42;;;1.00;;
27071;SDS011;14613;46.308;25.288;2022-07-18T14:01:46;2.38;;;0.82;;
27071;SDS011;14613;46.308;25.288;2022-07-18T14:04:12;1.17;;;1.00;;
27071;SDS011;14613;46.308;25.288;2022-07-18T14:06:38;5.22;;;1.02;;
27071;SDS011;14613;46.308;25.288;2022-07-18T14:09:04;2.90;;;0.88;;
27071;SDS011;14613;46.308;25.288;2022-07-18T14:11:31;1.23;;;0.82;;
27071;SDS011;14613;46.308;25.288;2022-07-18T14:14:03;1.80;;;0.85;;
27071;SDS011;14613;46.308;25.288;2022-07-18T14:16:30;3.42;;;0.88;;
27071;SDS011;14613;46.308;25.288;2022-07-18T14:18:56;11.05;;;1.13;;
27071;SDS011;14613;46.308;25.288;2022-07-18T14:21:22;1.25;;;0.90;;
27071;SDS011;14613;46.308;25.288;2022-07-18T14:23:48;3.15;;;1.10;;
27071;SDS011;14613;46.308;25.288;2022-07-18T14:26:14;2.42;;;1.02;;
27071;SDS011;14613;46.308;25.288;2022-07-18T14:28:41;4.80;;;1.00;;
27071;SDS011;14613;46.308;25.288;2022-07-18T14:31:07;2.22;;;1.23;;
27071;SDS011;14613;46.308;25.288;2022-07-18T14:33:33;2.58;;;1.02;;
27071;SDS011;14613;46.308;25.288;2022-07-18T14:35:59;2.25;;;0.93;;
27071;SDS011;14613;46.308;25.288;2022-07-18T14:38:25;1.80;;;1.08;;
27071;SDS011;14613;46.308;25.288;2022-07-18T14:40:50;1.00;;;0.88;;
27071;SDS011;14613;46.308;25.288;2022-07-18T14:43:16;3.58;;;1.00;;
27071;SDS011;14613;46.308;25.288;2022-07-18T14:45:42;2.47;;;0.75;;
27071;SDS011;14613;46.308;25.288;2022-07-18T14:48:08;2.15;;;1.15;;
27071;SDS011;14613;46.308;25.288;2022-07-18T14:50:34;5.85;;;1.00;;
27071;SDS011;14613;46.308;25.288;2022-07-18T14:53:00;3.63;;;1.02;;
27071;SDS011;14613;46.308;25.288;2022-07-18T14:55:26;2.97;;;0.98;;
27071;SDS011;14613;46.308;25.288;2022-07-18T14:57:51;2.78;;;1.00;;
27071;SDS011;14613;46.308;25.288;2022-07-18T15:00:17;1.63;;;0.82;;
27071;SDS011;14613;46.308;25.288;2022-07-18T15:02:43;1.98;;;1.10;;
27071;SDS011;14613;46.308;25.288;2022-07-18T15:05:09;1.75;;;1.00;;
27071;SDS011;14613;46.308;25.288;2022-07-18T15:07:35;3.22;;;1.00;;
27071;SDS011;14613;46.308;25.288;2022-07-18T15:10:02;2.33;;;0.95;;